sensor_id;sensor_type;location;lat;lon;timestamp;pressure;altitude;pressure_sealevel;temperature;humidity
55291;BME280;41155;39.768;2.712;2024-01-15T00:02:18;100905.22;;;12.91;69.92
55291;BME280;41155;39.768;2.712;2024-01-15T00:04:43;100898.72;;;12.92;70.12
55291;BME280;41155;39.768;2.712;2024-01-15T00:07:09;100894.13;;;12.97;70.09
55291;BME280;41155;39.768;2.712;2024-01-15T00:09:35;100893.88;;;13.04;70.15
55291;BME280;41155;39.768;2.712;2024-01-15T00:12:01;100896.63;;;13.09;70.11
55291;BME280;41155;39.768;2.712;2024-01-15T00:14:27;100894.69;;;13.04;70.22
55291;BME280;41155;39.768;2.712;2024-01-15T00:16:53;100880.91;;;13.06;70.11
55291;BME280;41155;39.768;2.712;2024-01-15T00:19:23;100894.47;;;13.16;69.96
55291;BME280;41155;39.768;2.712;2024-01-15T00:21:49;100891.00;;;13.21;69.84
55291;BME280;41155;39.768;2.712;2024-01-15T00:24:15;100893.44;;;13.17;70.08
55291;BME280;41155;39.768;2.712;2024-01-15T00:26:41;100871.75;;;13.17;69.91
55291;BME280;41155;39.768;2.712;2024-01-15T00:29:07;100882.13;;;13.25;69.91
55291;BME280;41155;39.768;2.712;2024-01-15T00:31:33;100882.91;;;13.26;69.52
55291;BME280;41155;39.768;2.712;2024-01-15T00:33:58;100878.78;;;13.18;69.55
55291;BME280;41155;39.768;2.712;2024-01-15T00:36:24;100864.41;;;13.18;69.50
55291;BME280;41155;39.768;2.712;2024-01-15T00:38:49;100849.44;;;13.00;69.57
55291;BME280;41155;39.768;2.712;2024-01-15T00:41:15;100877.91;;;13.07;69.37
55291;BME280;41155;39.768;2.712;2024-01-15T00:43:40;100884.69;;;13.05;69.48
55291;BME280;41155;39.768;2.712;2024-01-15T00:46:06;100876.78;;;12.98;69.95
55291;BME280;41155;39.768;2.712;2024-01-15T00:48:32;100877.50;;;12.83;70.00
55291;BME280;41155;39.768;2.712;2024-01-15T00:50:57;100879.97;;;12.90;70.21
55291;BME280;41155;39.768;2.712;2024-01-15T00:53:23;100875.09;;;12.82;70.33
55291;BME280;41155;39.768;2.712;2024-01-15T00:55:50;100873.44;;;12.76;70.72
55291;BME280;41155;39.768;2.712;2024-01-15T00:58:15;100864.94;;;12.62;71.09
55291;BME280;41155;39.768;2.712;2024-01-15T01:00:41;100867.69;;;12.67;71.59
55291;BME280;41155;39.768;2.712;2024-01-15T01:03:07;100863.84;;;12.63;71.92
55291;BME280;41155;39.768;2.712;2024-01-15T01:05:35;100863.88;;;12.68;71.76
55291;BME280;41155;39.768;2.712;2024-01-15T01:08:01;100848.16;;;12.65;71.75
55291;BME280;41155;39.768;2.712;2024-01-15T01:10:27;100850.97;;;12.43;71.87
55291;BME280;41155;39.768;2.712;2024-01-15T01:12:52;100848.88;;;12.13;74.31
55291;BME280;41155;39.768;2.712;2024-01-15T01:15:18;100842.88;;;12.11;74.71
55291;BME280;41155;39.768;2.712;2024-01-15T01:17:43;100867.88;;;12.23;74.60
55291;BME280;41155;39.768;2.712;2024-01-15T01:20:09;100865.69;;;12.20;74.47
55291;BME280;41155;39.768;2.712;2024-01-15T01:22:35;100876.41;;;12.05;74.68
55291;BME280;41155;39.768;2.712;2024-01-15T01:25:01;100877.72;;;12.02;75.31
55291;BME280;41155;39.768;2.712;2024-01-15T01:27:26;100871.31;;;12.13;75.52
55291;BME280;41155;39.768;2.712;2024-01-15T01:29:52;100883.25;;;12.12;75.50
55291;BME280;41155;39.768;2.712;2024-01-15T01:32:18;100882.03;;;11.98;76.22
55291;BME280;41155;39.768;2.712;2024-01-15T01:34:43;100877.50;;;12.09;75.96
55291;BME280;41155;39.768;2.712;2024-01-15T01:37:10;100880.56;;;12.17;75.83
55291;BME280;41155;39.768;2.712;2024-01-15T01:39:37;100867.06;;;12.23;75.55
55291;BME280;41155;39.768;2.712;2024-01-15T01:42:03;100860.56;;;11.91;75.76
55291;BME280;41155;39.768;2.712;2024-01-15T01:44:28;100875.19;;;11.90;76.16
55291;BME280;41155;39.768;2.712;2024-01-15T01:46:54;100872.47;;;11.90;76.18
55291;BME280;41155;39.768;2.712;2024-01-15T01:49:20;100855.78;;;11.98;76.31
55291;BME280;41155;39.768;2.712;2024-01-15T01:51:46;100851.13;;;11.94;76.46
55291;BME280;41155;39.768;2.712;2024-01-15T01:54:12;100845.47;;;11.95;76.41
55291;BME280;41155;39.768;2.712;2024-01-15T01:56:40;100846.75;;;11.88;76.30
55291;BME280;41155;39.768;2.712;2024-01-15T01:59:08;100850.94;;;12.01;76.54
55291;BME280;41155;39.768;2.712;2024-01-15T02:01:35;100853.88;;;11.99;76.17
55291;BME280;41155;39.768;2.712;2024-01-15T02:04:01;100865.09;;;12.13;75.88
55291;BME280;41155;39.768;2.712;2024-01-15T02:06:27;100854.00;;;12.14;75.58
55291;BME280;41155;39.768;2.712;2024-01-15T02:08:53;100853.19;;;11.60;76.47
55291;BME280;41155;39.768;2.712;2024-01-15T02:11:18;100857.72;;;11.54;77.62
55291;BME280;41155;39.768;2.712;2024-01-15T02:13:44;100859.47;;;11.65;77.69
55291;BME280;41155;39.768;2.712;2024-01-15T02:16:09;100862.00;;;11.72;77.44
55291;BME280;41155;39.768;2.712;2024-01-15T02:18:41;100862.16;;;11.65;77.50
55291;BME280;41155;39.768;2.712;2024-01-15T02:21:07;100863.91;;;11.49;77.97
55291;BME280;41155;39.768;2.712;2024-01-15T02:23:33;100850.19;;;11.56;78.70
55291;BME280;41155;39.768;2.712;2024-01-15T02:25:58;100842.69;;;11.63;78.48
55291;BME280;41155;39.768;2.712;2024-01-15T02:28:24;100855.13;;;11.64;78.30
55291;BME280;41155;39.768;2.712;2024-01-15T02:30:50;100857.91;;;11.69;78.12
55291;BME280;41155;39.768;2.712;2024-01-15T02:33:15;100857.47;;;11.83;77.89
55291;BME280;41155;39.768;2.712;2024-01-15T02:35:41;100851.41;;;11.92;77.35
55291;BME280;41155;39.768;2.712;2024-01-15T02:38:06;100848.72;;;11.97;76.88
55291;BME280;41155;39.768;2.712;2024-01-15T02:40:32;100864.47;;;12.01;76.51
55291;BME280;41155;39.768;2.712;2024-01-15T02:42:58;100856.28;;;11.95;76.22
55291;BME280;41155;39.768;2.712;2024-01-15T02:45:23;100877.94;;;11.95;75.84
55291;BME280;41155;39.768;2.712;2024-01-15T02:47:49;100876.28;;;11.45;76.73
55291;BME280;41155;39.768;2.712;2024-01-15T02:50:15;100892.63;;;10.73;79.64
55291;BME280;41155;39.768;2.712;2024-01-15T02:52:43;100893.06;;;10.65;81.27
55291;BME280;41155;39.768;2.712;2024-01-15T02:55:09;100885.28;;;10.68;81.71
55291;BME280;41155;39.768;2.712;2024-01-15T02:57:35;100888.94;;;10.79;81.92
55291;BME280;41155;39.768;2.712;2024-01-15T03:00:01;100875.41;;;10.57;83.40
55291;BME280;41155;39.768;2.712;2024-01-15T03:02:26;100869.22;;;10.61;83.68
55291;BME280;41155;39.768;2.712;2024-01-15T03:04:52;100866.69;;;10.72;83.60
55291;BME280;41155;39.768;2.712;2024-01-15T03:07:17;100865.91;;;10.93;83.37
55291;BME280;41155;39.768;2.712;2024-01-15T03:09:43;100852.53;;;11.03;82.88
55291;BME280;41155;39.768;2.712;2024-01-15T03:12:09;100844.00;;;11.12;82.05
55291;BME280;41155;39.768;2.712;2024-01-15T03:14:35;100843.59;;;11.25;81.77
55291;BME280;41155;39.768;2.712;2024-01-15T03:17:00;100814.88;;;11.19;81.53
55291;BME280;41155;39.768;2.712;2024-01-15T03:19:26;100836.19;;;11.37;81.08
55291;BME280;41155;39.768;2.712;2024-01-15T03:21:52;100847.56;;;11.39;80.22
55291;BME280;41155;39.768;2.712;2024-01-15T03:24:17;100850.31;;;11.22;80.08
55291;BME280;41155;39.768;2.712;2024-01-15T03:26:43;100834.44;;;11.04;81.04
55291;BME280;41155;39.768;2.712;2024-01-15T03:29:08;100814.34;;;10.95;81.46
55291;BME280;41155;39.768;2.712;2024-01-15T03:31:34;100818.16;;;10.77;82.76
55291;BME280;41155;39.768;2.712;2024-01-15T03:33:59;100828.59;;;10.90;83.02
55291;BME280;41155;39.768;2.712;2024-01-15T03:36:25;100826.25;;;10.99;82.94
55291;BME280;41155;39.768;2.712;2024-01-15T03:38:50;100817.66;;;11.02;82.73
55291;BME280;41155;39.768;2.712;2024-01-15T03:41:16;100815.97;;;11.18;82.65
55291;BME280;41155;39.768;2.712;2024-01-15T03:43:41;100793.25;;;11.19;82.20
55291;BME280;41155;39.768;2.712;2024-01-15T03:46:07;100808.59;;;11.35;81.80
55291;BME280;41155;39.768;2.712;2024-01-15T03:48:32;100815.56;;;11.31;81.21
55291;BME280;41155;39.768;2.712;2024-01-15T03:50:58;100827.59;;;11.40;81.14
55291;BME280;41155;39.768;2.712;2024-01-15T03:53:23;100831.97;;;11.46;80.66
55291;BME280;41155;39.768;2.712;2024-01-15T03:55:49;100843.09;;;11.50;80.22
55291;BME280;41155;39.768;2.712;2024-01-15T03:58:15;100845.84;;;11.55;80.01
55291;BME280;41155;39.768;2.712;2024-01-15T04:00:42;100820.66;;;11.49;79.49
55291;BME280;41155;39.768;2.712;2024-01-15T04:03:08;100837.28;;;11.63;78.63
55291;BME280;41155;39.768;2.712;2024-01-15T04:05:33;100838.66;;;11.17;79.25
55291;BME280;41155;39.768;2.712;2024-01-15T04:07:59;100840.50;;;11.11;80.27
55291;BME280;41155;39.768;2.712;2024-01-15T04:10:24;100834.06;;;11.17;80.20
55291;BME280;41155;39.768;2.712;2024-01-15T04:12:50;100819.53;;;11.01;81.08
55291;BME280;41155;39.768;2.712;2024-01-15T04:15:15;100826.84;;;11.01;82.08
55291;BME280;41155;39.768;2.712;2024-01-15T04:17:41;100826.59;;;11.02;82.22
55291;BME280;41155;39.768;2.712;2024-01-15T04:20:07;100827.28;;;11.15;82.01
55291;BME280;41155;39.768;2.712;2024-01-15T04:22:34;100813.78;;;11.15;82.10
55291;BME280;41155;39.768;2.712;2024-01-15T04:25:00;100826.78;;;11.18;82.04
55291;BME280;41155;39.768;2.712;2024-01-15T04:27:26;100825.91;;;11.12;81.76
55291;BME280;41155;39.768;2.712;2024-01-15T04:29:51;100825.44;;;10.98;82.38
55291;BME280;41155;39.768;2.712;2024-01-15T04:32:18;100816.84;;;11.01;82.70
55291;BME280;41155;39.768;2.712;2024-01-15T04:34:43;100819.69;;;11.12;82.33
55291;BME280;41155;39.768;2.712;2024-01-15T04:37:09;100825.03;;;11.06;82.58
55291;BME280;41155;39.768;2.712;2024-01-15T04:39:34;100814.81;;;11.14;82.19
55291;BME280;41155;39.768;2.712;2024-01-15T04:42:00;100806.63;;;11.30;81.87
55291;BME280;41155;39.768;2.712;2024-01-15T04:44:25;100802.69;;;11.38;81.20
55291;BME280;41155;39.768;2.712;2024-01-15T04:46:50;100791.06;;;11.38;80.93
55291;BME280;41155;39.768;2.712;2024-01-15T04:49:16;100795.13;;;11.40;80.58
55291;BME280;41155;39.768;2.712;2024-01-15T04:51:41;100778.41;;;11.43;80.68
55291;BME280;41155;39.768;2.712;2024-01-15T04:54:07;100795.13;;;11.40;80.38
55291;BME280;41155;39.768;2.712;2024-01-15T04:56:32;100803.78;;;11.42;80.37
55291;BME280;41155;39.768;2.712;2024-01-15T04:58:58;100802.75;;;11.43;79.98
55291;BME280;41155;39.768;2.712;2024-01-15T05:01:23;100799.91;;;11.33;80.09
55291;BME280;41155;39.768;2.712;2024-01-15T05:03:49;100790.25;;;11.37;79.89
55291;BME280;41155;39.768;2.712;2024-01-15T05:06:15;100789.50;;;11.20;80.28
55291;BME280;41155;39.768;2.712;2024-01-15T05:08:40;100787.84;;;11.19;80.69
55291;BME280;41155;39.768;2.712;2024-01-15T05:11:06;100786.06;;;10.80;81.84
55291;BME280;41155;39.768;2.712;2024-01-15T05:13:32;100801.72;;;10.61;83.23
55291;BME280;41155;39.768;2.712;2024-01-15T05:15:57;100795.88;;;10.65;84.09
55291;BME280;41155;39.768;2.712;2024-01-15T05:18:23;100795.56;;;10.83;84.26
55291;BME280;41155;39.768;2.712;2024-01-15T05:20:48;100794.34;;;10.96;84.36
55291;BME280;41155;39.768;2.712;2024-01-15T05:23:14;100808.72;;;11.01;84.41
55291;BME280;41155;39.768;2.712;2024-01-15T05:25:39;100794.47;;;11.06;84.29
55291;BME280;41155;39.768;2.712;2024-01-15T05:28:05;100798.88;;;10.90;83.52
55291;BME280;41155;39.768;2.712;2024-01-15T05:30:31;100808.19;;;10.99;83.31
55291;BME280;41155;39.768;2.712;2024-01-15T05:32:56;100806.41;;;11.10;83.27
55291;BME280;41155;39.768;2.712;2024-01-15T05:35:23;100796.66;;;10.87;83.29
55291;BME280;41155;39.768;2.712;2024-01-15T05:37:48;100837.03;;;10.94;83.32
55291;BME280;41155;39.768;2.712;2024-01-15T05:40:14;100816.06;;;10.84;83.31
55291;BME280;41155;39.768;2.712;2024-01-15T05:42:39;100824.56;;;10.71;84.12
55291;BME280;41155;39.768;2.712;2024-01-15T05:45:05;100842.16;;;10.73;84.85
55291;BME280;41155;39.768;2.712;2024-01-15T05:47:31;100812.44;;;10.73;84.95
55291;BME280;41155;39.768;2.712;2024-01-15T05:49:57;100815.66;;;10.92;84.69
55291;BME280;41155;39.768;2.712;2024-01-15T05:52:23;100809.47;;;10.75;84.70
55291;BME280;41155;39.768;2.712;2024-01-15T05:54:49;100833.81;;;10.97;84.06
55291;BME280;41155;39.768;2.712;2024-01-15T05:57:15;100831.28;;;10.90;84.66
55291;BME280;41155;39.768;2.712;2024-01-15T05:59:41;100838.97;;;10.98;84.97
55291;BME280;41155;39.768;2.712;2024-01-15T06:02:06;100830.78;;;10.93;84.83
55291;BME280;41155;39.768;2.712;2024-01-15T06:04:32;100823.56;;;10.99;84.56
55291;BME280;41155;39.768;2.712;2024-01-15T06:06:57;100815.78;;;11.02;84.49
55291;BME280;41155;39.768;2.712;2024-01-15T06:09:23;100791.47;;;10.80;84.79
55291;BME280;41155;39.768;2.712;2024-01-15T06:11:48;100808.22;;;11.04;84.83
55291;BME280;41155;39.768;2.712;2024-01-15T06:14:14;100808.56;;;11.08;84.77
55291;BME280;41155;39.768;2.712;2024-01-15T06:16:39;100814.34;;;11.17;84.58
55291;BME280;41155;39.768;2.712;2024-01-15T06:19:05;100795.66;;;11.15;84.46
55291;BME280;41155;39.768;2.712;2024-01-15T06:21:30;100804.66;;;11.21;84.44
55291;BME280;41155;39.768;2.712;2024-01-15T06:23:56;100811.06;;;11.15;84.27
55291;BME280;41155;39.768;2.712;2024-01-15T06:26:24;100791.13;;;11.21;84.44
55291;BME280;41155;39.768;2.712;2024-01-15T06:28:50;100792.06;;;11.31;84.02
55291;BME280;41155;39.768;2.712;2024-01-15T06:31:15;100795.38;;;11.39;83.94
55291;BME280;41155;39.768;2.712;2024-01-15T06:33:41;100795.38;;;11.39;83.23
55291;BME280;41155;39.768;2.712;2024-01-15T06:36:07;100788.13;;;11.44;83.28
55291;BME280;41155;39.768;2.712;2024-01-15T06:38:32;100803.41;;;11.56;82.79
55291;BME280;41155;39.768;2.712;2024-01-15T06:40:57;100804.78;;;11.58;82.33
55291;BME280;41155;39.768;2.712;2024-01-15T06:43:23;100803.19;;;11.62;82.52
55291;BME280;41155;39.768;2.712;2024-01-15T06:45:48;100783.66;;;11.55;81.95
55291;BME280;41155;39.768;2.712;2024-01-15T06:48:15;100795.00;;;11.30;82.80
55291;BME280;41155;39.768;2.712;2024-01-15T06:50:42;100791.06;;;11.16;83.25
55291;BME280;41155;39.768;2.712;2024-01-15T06:53:10;100791.34;;;11.14;83.72
55291;BME280;41155;39.768;2.712;2024-01-15T06:55:37;100792.88;;;11.32;83.85
55291;BME280;41155;39.768;2.712;2024-01-15T06:58:03;100804.31;;;11.39;83.46
55291;BME280;41155;39.768;2.712;2024-01-15T07:00:28;100790.75;;;11.34;83.55
55291;BME280;41155;39.768;2.712;2024-01-15T07:02:54;100798.28;;;11.32;83.51
55291;BME280;41155;39.768;2.712;2024-01-15T07:05:20;100802.31;;;11.29;83.45
55291;BME280;41155;39.768;2.712;2024-01-15T07:07:46;100812.41;;;11.39;83.54
55291;BME280;41155;39.768;2.712;2024-01-15T07:10:13;100817.88;;;11.44;83.50
55291;BME280;41155;39.768;2.712;2024-01-15T07:12:38;100808.44;;;11.47;83.58
55291;BME280;41155;39.768;2.712;2024-01-15T07:15:07;100799.25;;;11.48;83.47
55291;BME280;41155;39.768;2.712;2024-01-15T07:17:33;100795.22;;;11.50;83.42
55291;BME280;41155;39.768;2.712;2024-01-15T07:19:59;100787.38;;;11.49;83.05
55291;BME280;41155;39.768;2.712;2024-01-15T07:22:24;100802.66;;;11.60;82.92
55291;BME280;41155;39.768;2.712;2024-01-15T07:24:50;100794.19;;;11.57;82.82
55291;BME280;41155;39.768;2.712;2024-01-15T07:27:15;100792.56;;;11.56;82.78
55291;BME280;41155;39.768;2.712;2024-01-15T07:29:41;100795.22;;;11.50;82.74
55291;BME280;41155;39.768;2.712;2024-01-15T07:32:08;100804.25;;;11.61;82.56
55291;BME280;41155;39.768;2.712;2024-01-15T07:34:34;100802.16;;;11.68;82.47
55291;BME280;41155;39.768;2.712;2024-01-15T07:36:59;100794.53;;;11.60;82.36
55291;BME280;41155;39.768;2.712;2024-01-15T07:39:25;100796.91;;;11.57;82.47
55291;BME280;41155;39.768;2.712;2024-01-15T07:41:51;100799.16;;;11.65;82.41
55291;BME280;41155;39.768;2.712;2024-01-15T07:44:17;100787.75;;;11.63;82.43
55291;BME280;41155;39.768;2.712;2024-01-15T07:46:46;100824.19;;;11.82;82.14
55291;BME280;41155;39.768;2.712;2024-01-15T07:49:12;100825.66;;;11.90;81.72
55291;BME280;41155;39.768;2.712;2024-01-15T07:51:38;100811.25;;;11.84;81.37
55291;BME280;41155;39.768;2.712;2024-01-15T07:54:06;100811.34;;;11.94;81.11
55291;BME280;41155;39.768;2.712;2024-01-15T07:56:31;100803.41;;;11.56;82.21
55291;BME280;41155;39.768;2.712;2024-01-15T07:58:57;100818.81;;;11.55;82.49
55291;BME280;41155;39.768;2.712;2024-01-15T08:01:22;100818.28;;;11.58;82.90
55291;BME280;41155;39.768;2.712;2024-01-15T08:03:48;100831.91;;;11.68;83.12
55291;BME280;41155;39.768;2.712;2024-01-15T08:06:13;100837.13;;;11.75;83.05
55291;BME280;41155;39.768;2.712;2024-01-15T08:08:39;100849.72;;;11.86;82.66
55291;BME280;41155;39.768;2.712;2024-01-15T08:11:05;100841.59;;;11.86;82.40
55291;BME280;41155;39.768;2.712;2024-01-15T08:13:30;100842.75;;;11.95;82.21
55291;BME280;41155;39.768;2.712;2024-01-15T08:15:56;100845.66;;;11.89;81.99
55291;BME280;41155;39.768;2.712;2024-01-15T08:18:21;100851.47;;;12.03;82.32
55291;BME280;41155;39.768;2.712;2024-01-15T08:20:47;100850.44;;;12.09;81.66
55291;BME280;41155;39.768;2.712;2024-01-15T08:23:12;100848.84;;;11.59;83.17
55291;BME280;41155;39.768;2.712;2024-01-15T08:25:38;100856.81;;;11.70;83.83
55291;BME280;41155;39.768;2.712;2024-01-15T08:28:04;100864.47;;;11.79;83.79
55291;BME280;41155;39.768;2.712;2024-01-15T08:30:29;100831.75;;;11.80;83.98
55291;BME280;41155;39.768;2.712;2024-01-15T08:32:55;100845.53;;;12.01;83.69
55291;BME280;41155;39.768;2.712;2024-01-15T08:35:21;100834.47;;;12.07;83.96
55291;BME280;41155;39.768;2.712;2024-01-15T08:37:50;100820.59;;;11.98;83.32
55291;BME280;41155;39.768;2.712;2024-01-15T08:40:16;100817.88;;;11.98;83.76
55291;BME280;41155;39.768;2.712;2024-01-15T08:42:43;100831.53;;;12.14;83.88
55291;BME280;41155;39.768;2.712;2024-01-15T08:45:09;100781.03;;;11.92;83.68
55291;BME280;41155;39.768;2.712;2024-01-15T08:47:35;100838.44;;;12.32;83.54
55291;BME280;41155;39.768;2.712;2024-01-15T08:50:01;100833.88;;;12.37;82.92
55291;BME280;41155;39.768;2.712;2024-01-15T08:52:28;100837.66;;;12.36;83.28
55291;BME280;41155;39.768;2.712;2024-01-15T08:54:55;100851.78;;;12.43;83.40
55291;BME280;41155;39.768;2.712;2024-01-15T08:57:20;100864.56;;;12.48;83.17
55291;BME280;41155;39.768;2.712;2024-01-15T08:59:47;100863.28;;;12.56;83.11
55291;BME280;41155;39.768;2.712;2024-01-15T09:02:13;100868.81;;;12.76;82.67
55291;BME280;41155;39.768;2.712;2024-01-15T09:04:38;100879.50;;;13.61;81.63
55291;BME280;41155;39.768;2.712;2024-01-15T09:07:04;100867.00;;;14.98;78.58
55291;BME280;41155;39.768;2.712;2024-01-15T09:09:29;100857.97;;;15.18;73.52
55291;BME280;41155;39.768;2.712;2024-01-15T09:11:55;100840.34;;;15.10;72.40
55291;BME280;41155;39.768;2.712;2024-01-15T09:14:20;100835.78;;;15.50;71.26
55291;BME280;41155;39.768;2.712;2024-01-15T09:16:47;100840.56;;;16.42;70.08
55291;BME280;41155;39.768;2.712;2024-01-15T09:19:13;100853.38;;;17.81;66.39
55291;BME280;41155;39.768;2.712;2024-01-15T09:21:39;100858.97;;;18.88;61.25
55291;BME280;41155;39.768;2.712;2024-01-15T09:24:05;100865.81;;;19.40;57.57
55291;BME280;41155;39.768;2.712;2024-01-15T09:26:30;100860.75;;;19.34;57.81
55291;BME280;41155;39.768;2.712;2024-01-15T09:28:57;100851.25;;;20.26;55.19
55291;BME280;41155;39.768;2.712;2024-01-15T09:31:22;100868.31;;;21.26;51.40
55291;BME280;41155;39.768;2.712;2024-01-15T09:33:49;100862.22;;;20.80;51.61
55291;BME280;41155;39.768;2.712;2024-01-15T09:36:17;100870.75;;;20.79;51.30
55291;BME280;41155;39.768;2.712;2024-01-15T09:38:43;100863.88;;;20.59;52.03
55291;BME280;41155;39.768;2.712;2024-01-15T09:41:09;100874.53;;;21.00;50.73
55291;BME280;41155;39.768;2.712;2024-01-15T09:43:36;100868.53;;;21.29;50.93
55291;BME280;41155;39.768;2.712;2024-01-15T09:46:03;100859.06;;;22.22;49.33
55291;BME280;41155;39.768;2.712;2024-01-15T09:48:28;100859.81;;;23.26;46.39
55291;BME280;41155;39.768;2.712;2024-01-15T09:50:54;100851.44;;;22.37;47.59
55291;BME280;41155;39.768;2.712;2024-01-15T09:53:23;100839.78;;;21.35;50.34
55291;BME280;41155;39.768;2.712;2024-01-15T09:55:50;100830.19;;;20.13;53.53
55291;BME280;41155;39.768;2.712;2024-01-15T09:58:16;100847.31;;;19.74;55.28
55291;BME280;41155;39.768;2.712;2024-01-15T10:00:42;100829.50;;;19.49;55.94
55291;BME280;41155;39.768;2.712;2024-01-15T10:03:09;100846.91;;;19.16;57.72
55291;BME280;41155;39.768;2.712;2024-01-15T10:05:37;100849.81;;;19.06;58.30
55291;BME280;41155;39.768;2.712;2024-01-15T10:08:04;100860.97;;;18.82;59.41
55291;BME280;41155;39.768;2.712;2024-01-15T10:10:30;100874.09;;;18.52;60.66
55291;BME280;41155;39.768;2.712;2024-01-15T10:12:58;100869.13;;;18.22;61.88
55291;BME280;41155;39.768;2.712;2024-01-15T10:15:28;100859.19;;;17.74;64.30
55291;BME280;41155;39.768;2.712;2024-01-15T10:17:54;100861.19;;;17.69;64.83
55291;BME280;41155;39.768;2.712;2024-01-15T10:20:20;100842.84;;;17.31;66.42
55291;BME280;41155;39.768;2.712;2024-01-15T10:22:47;100849.38;;;17.11;68.10
55291;BME280;41155;39.768;2.712;2024-01-15T10:25:14;100832.47;;;16.90;68.83
55291;BME280;41155;39.768;2.712;2024-01-15T10:27:43;100849.00;;;16.99;69.36
55291;BME280;41155;39.768;2.712;2024-01-15T10:30:09;100845.50;;;16.93;69.60
55291;BME280;41155;39.768;2.712;2024-01-15T10:32:35;100842.88;;;16.83;70.02
55291;BME280;41155;39.768;2.712;2024-01-15T10:35:01;100824.16;;;16.71;71.08
55291;BME280;41155;39.768;2.712;2024-01-15T10:37:26;100821.97;;;16.49;71.56
55291;BME280;41155;39.768;2.712;2024-01-15T10:39:52;100812.16;;;16.19;73.59
55291;BME280;41155;39.768;2.712;2024-01-15T10:42:18;100803.03;;;16.05;74.61
55291;BME280;41155;39.768;2.712;2024-01-15T10:44:44;100792.84;;;16.16;73.72
55291;BME280;41155;39.768;2.712;2024-01-15T10:47:12;100783.00;;;16.20;73.33
55291;BME280;41155;39.768;2.712;2024-01-15T10:49:38;100789.28;;;16.20;72.99
55291;BME280;41155;39.768;2.712;2024-01-15T10:52:04;100767.81;;;16.14;73.49
55291;BME280;41155;39.768;2.712;2024-01-15T10:54:30;100771.59;;;16.18;74.05
55291;BME280;41155;39.768;2.712;2024-01-15T10:56:58;100773.22;;;16.19;74.76
55291;BME280;41155;39.768;2.712;2024-01-15T10:59:24;100787.38;;;16.21;74.52
55291;BME280;41155;39.768;2.712;2024-01-15T11:01:53;100774.94;;;16.10;74.24
55291;BME280;41155;39.768;2.712;2024-01-15T11:04:20;100790.91;;;16.21;73.56
55291;BME280;41155;39.768;2.712;2024-01-15T11:06:50;100790.31;;;16.24;72.89
55291;BME280;41155;39.768;2.712;2024-01-15T11:09:16;100787.03;;;16.27;72.83
55291;BME280;41155;39.768;2.712;2024-01-15T11:11:46;100783.69;;;16.36;72.16
55291;BME280;41155;39.768;2.712;2024-01-15T11:14:41;100783.38;;;16.37;71.20
55291;BME280;41155;39.768;2.712;2024-01-15T11:17:09;100767.50;;;16.44;71.49
55291;BME280;41155;39.768;2.712;2024-01-15T11:19:43;100762.00;;;16.49;71.44
55291;BME280;41155;39.768;2.712;2024-01-15T11:22:09;100765.72;;;16.59;72.14
55291;BME280;41155;39.768;2.712;2024-01-15T11:24:40;100766.75;;;16.63;72.30
55291;BME280;41155;39.768;2.712;2024-01-15T11:27:09;100761.81;;;16.65;72.86
55291;BME280;41155;39.768;2.712;2024-01-15T11:29:38;100744.94;;;16.63;72.42
55291;BME280;41155;39.768;2.712;2024-01-15T11:34:52;100740.28;;;16.63;71.35
55291;BME280;41155;39.768;2.712;2024-01-15T11:37:19;100751.94;;;16.69;70.95
55291;BME280;41155;39.768;2.712;2024-01-15T11:39:44;100758.56;;;16.63;70.75
55291;BME280;41155;39.768;2.712;2024-01-15T11:42:12;100748.19;;;16.65;70.48
55291;BME280;41155;39.768;2.712;2024-01-15T11:44:38;100747.09;;;16.66;70.70
55291;BME280;41155;39.768;2.712;2024-01-15T11:47:06;100737.81;;;16.67;70.26
55291;BME280;41155;39.768;2.712;2024-01-15T11:52:01;100740.75;;;16.70;71.80
55291;BME280;41155;39.768;2.712;2024-01-15T11:54:30;100749.97;;;16.75;71.55
55291;BME280;41155;39.768;2.712;2024-01-15T11:57:00;100730.72;;;16.66;70.90
55291;BME280;41155;39.768;2.712;2024-01-15T11:59:29;100732.28;;;16.72;71.78
55291;BME280;41155;39.768;2.712;2024-01-15T12:01:55;100717.00;;;16.76;72.78
55291;BME280;41155;39.768;2.712;2024-01-15T12:04:21;100697.69;;;16.72;73.12
55291;BME280;41155;39.768;2.712;2024-01-15T12:06:46;100711.59;;;16.71;73.40
55291;BME280;41155;39.768;2.712;2024-01-15T12:09:12;100707.47;;;16.73;73.26
55291;BME280;41155;39.768;2.712;2024-01-15T12:11:39;100694.34;;;16.76;72.88
55291;BME280;41155;39.768;2.712;2024-01-15T12:14:07;100700.88;;;16.80;72.76
55291;BME280;41155;39.768;2.712;2024-01-15T12:16:33;100691.28;;;16.82;72.57
55291;BME280;41155;39.768;2.712;2024-01-15T12:18:59;100683.25;;;16.91;72.22
55291;BME280;41155;39.768;2.712;2024-01-15T12:21:26;100679.94;;;16.94;72.14
55291;BME280;41155;39.768;2.712;2024-01-15T12:23:52;100678.03;;;16.94;71.03
55291;BME280;41155;39.768;2.712;2024-01-15T12:26:19;100681.03;;;17.12;69.97
55291;BME280;41155;39.768;2.712;2024-01-15T12:28:45;100681.78;;;17.17;69.41
55291;BME280;41155;39.768;2.712;2024-01-15T12:31:11;100696.38;;;17.27;69.18
55291;BME280;41155;39.768;2.712;2024-01-15T12:33:36;100697.22;;;17.27;68.95
55291;BME280;41155;39.768;2.712;2024-01-15T12:36:01;100708.53;;;17.34;68.72
55291;BME280;41155;39.768;2.712;2024-01-15T12:38:28;100714.44;;;17.42;68.67
55291;BME280;41155;39.768;2.712;2024-01-15T12:40:53;100707.94;;;17.37;68.57
55291;BME280;41155;39.768;2.712;2024-01-15T12:43:19;100714.34;;;17.47;68.61
55291;BME280;41155;39.768;2.712;2024-01-15T12:45:45;100705.34;;;17.46;68.22
55291;BME280;41155;39.768;2.712;2024-01-15T12:48:11;100706.69;;;17.49;66.66
55291;BME280;41155;39.768;2.712;2024-01-15T12:50:38;100689.56;;;17.43;67.12